^^
Station Historical Data
Daily Summary for June 15, 2017 Units:  English    Metric   Both
« Previous Day
Next Day »
Daily Weekly Monthly Yearly Custom
  High: Low: Average:
Temperature: 75.3 °F 59.4 °F 67.4 °F
Dew Point: 58.5 °F 49.3 °F 54.1 °F
Humidity: 93% 42% 65%
Wind Speed: 7.0mph 0.0mph 1.3mph
Wind Gust: 15.0mph - -
Wind- - SW
Pressure: 30.08 in 30.01 in -
Precipitation: 0.00 in    
Historical Graphs
 
 
Tabular Data for June 15, 2017
Time Temperature Dew Point Pressure Wind Wind Speed Wind Gust Humidity Rainfall Rate (Hourly) Conditions
00:00 64.3 °F 52.7 °F 30.03 in Calm   1.0 mph 66% 0.00 in CLR
00:15 64.3 °F 52.7 °F 30.03 in Calm   1.0 mph 66% 0.00 in CLR
00:30 64.2 °F 53.0 °F 30.03 in Calm   1.0 mph 67% 0.00 in CLR
00:45 63.9 °F 53.1 °F 30.03 in Calm   1.0 mph 68% 0.00 in CLR
01:00 63.8 °F 53.0 °F 30.03 in Calm   1.0 mph 68% 0.00 in CLR
02:15 62.4 °F 55.1 °F 30.03 in Calm   2.0 mph 77% 0.00 in CLR
02:30 62.3 °F 55.0 °F 30.03 in Calm   2.0 mph 77% 0.00 in CLR
02:45 62.1 °F 54.8 °F 30.03 in Calm   1.0 mph 77% 0.00 in CLR
03:00 61.9 °F 55.0 °F 30.04 in Calm   1.0 mph 78% 0.00 in CLR
03:15 61.7 °F 54.8 °F 30.03 in Calm   3.0 mph 78% 0.00 in CLR
03:30 61.5 °F 55.3 °F 30.02 in Calm   1.0 mph 80% 0.00 in CLR
03:45 61.3 °F 55.8 °F 30.03 in North 1.0 mph 4.0 mph 82% 0.00 in CLR
04:00 61.2 °F 56.0 °F 30.02 in Calm   3.0 mph 83% 0.00 in CLR
04:15 60.9 °F 55.7 °F 30.02 in North 1.0 mph 3.0 mph 83% 0.00 in CLR
04:30 60.5 °F 56.0 °F 30.02 in Calm   3.0 mph 85% 0.00 in CLR
04:45 60.1 °F 55.9 °F 30.02 in Calm   3.0 mph 86% 0.00 in CLR
05:00 59.8 °F 55.9 °F 30.03 in Calm   2.0 mph 87% 0.00 in CLR
05:15 59.4 °F 55.9 °F 30.03 in Calm   3.0 mph 88% 0.00 in CLR
05:30 59.5 °F 56.6 °F 30.04 in Calm   3.0 mph 90% 0.00 in CLR
05:45 59.5 °F 57.2 °F 30.05 in Calm   4.0 mph 92% 0.00 in CLR
06:00 59.4 °F 57.1 °F 30.04 in Calm   2.0 mph 92% 0.00 in CLR
06:15 59.5 °F 57.5 °F 30.04 in Calm   2.0 mph 93% 0.00 in CLR
06:30 59.8 °F 57.5 °F 30.04 in Calm   2.0 mph 92% 0.00 in CLR
06:45 60.1 °F 57.8 °F 30.05 in Calm   1.0 mph 92% 0.00 in CLR
07:00 60.6 °F 58.0 °F 30.05 in NNW 1.0 mph 2.0 mph 91% 0.00 in CLR
07:15 61.2 °F 57.9 °F 30.05 in Calm   2.0 mph 89% 0.00 in FEW
07:30 61.9 °F 58.0 °F 30.05 in Calm   2.0 mph 87% 0.00 in FEW
07:45 63.3 °F 58.4 °F 30.06 in Calm   3.0 mph 84% 0.00 in FEW
08:00 64.3 °F 58.4 °F 30.06 in Calm   3.0 mph 81% 0.00 in FEW
08:15 65.1 °F 58.4 °F 30.07 in WNW 1.0 mph 3.0 mph 79% 0.00 in CLR
08:30 65.2 °F 58.5 °F 30.06 in Calm   5.0 mph 79% 0.00 in CLR
08:45 66.2 °F 57.7 °F 30.07 in East 2.0 mph 6.0 mph 74% 0.00 in CLR
09:00 67.2 °F 57.5 °F 30.06 in Calm   5.0 mph 71% 0.00 in CLR
09:15 68.1 °F 56.7 °F 30.07 in SW 1.0 mph 6.0 mph 67% 0.00 in BKN
09:30 69.4 °F 57.5 °F 30.07 in South 1.0 mph 7.0 mph 66% 0.00 in BKN
10:00 69.9 °F 56.7 °F 30.07 in SSW 2.0 mph 5.0 mph 63% 0.00 in BKN
10:15 70.3 °F 57.1 °F 30.08 in SW 2.0 mph 6.0 mph 63% 0.00 in SCT
10:30 71.2 °F 57.1 °F 30.08 in NNW 3.0 mph 6.0 mph 61% 0.00 in SCT
10:45 71.7 °F 56.6 °F 30.08 in SSW 5.0 mph 8.0 mph 59% 0.00 in SCT
11:00 72.3 °F 57.6 °F 30.07 in South 2.0 mph 6.0 mph 60% 0.00 in SCT
11:15 73.5 °F 56.8 °F 30.07 in South 3.0 mph 7.0 mph 56% 0.00 in BKN
11:30 73.7 °F 57.5 °F 30.06 in NNW 2.0 mph 8.0 mph 57% 0.00 in BKN
11:45 74.1 °F 56.4 °F 30.07 in SSW 5.0 mph 9.0 mph 54% 0.00 in BKN
12:00 75.1 °F 54.6 °F 30.06 in SSW 5.0 mph 9.0 mph 49% 0.00 in BKN
12:15 74.3 °F 54.5 °F 30.06 in South 3.0 mph 9.0 mph 50% 0.00 in SCT
12:30 74.0 °F 54.2 °F 30.06 in South 1.0 mph 8.0 mph 50% 0.00 in SCT
12:45 74.9 °F 54.5 °F 30.05 in SSW 2.0 mph 12.0 mph 49% 0.00 in SCT
13:00 73.8 °F 53.5 °F 30.06 in South 2.0 mph 15.0 mph 49% 0.00 in SCT
13:15 74.4 °F 54.0 °F 30.05 in SSW 5.0 mph 12.0 mph 49% 0.00 in BKN
13:30 75.3 °F 53.7 °F 30.05 in SSE 2.0 mph 9.0 mph 47% 0.00 in BKN
13:45 73.8 °F 51.8 °F 30.05 in SSW 2.0 mph 12.0 mph 46% 0.00 in BKN
14:00 73.8 °F 52.9 °F 30.05 in Calm   7.0 mph 48% 0.00 in BKN
14:15 74.6 °F 50.6 °F 30.05 in SSE 3.0 mph 7.0 mph 43% 0.00 in BKN
14:30 74.2 °F 50.9 °F 30.05 in Calm   8.0 mph 44% 0.00 in BKN
14:45 74.6 °F 51.2 °F 30.04 in SSW 6.0 mph 12.0 mph 44% 0.00 in BKN
15:00 74.0 °F 50.1 °F 30.03 in SW 3.0 mph 10.0 mph 43% 0.00 in BKN
15:15 75.3 °F 52.5 °F 30.03 in SW 2.0 mph 8.0 mph 45% 0.00 in CLR
15:30 74.9 °F 51.5 °F 30.03 in SW 1.0 mph 10.0 mph 44% 0.00 in CLR
15:45 74.8 °F 50.8 °F 30.03 in SW 3.0 mph 9.0 mph 43% 0.00 in CLR
16:00 73.8 °F 49.3 °F 30.03 in SW 7.0 mph 13.0 mph 42% 0.00 in CLR
16:15 73.9 °F 49.3 °F 30.03 in SW 2.0 mph 12.0 mph 42% 0.00 in SCT
16:30 74.0 °F 50.1 °F 30.02 in SW 3.0 mph 7.0 mph 43% 0.00 in SCT
16:45 74.7 °F 50.1 °F 30.03 in SSW 2.0 mph 7.0 mph 42% 0.00 in SCT
17:00 74.4 °F 49.8 °F 30.02 in South 1.0 mph 8.0 mph 42% 0.00 in SCT
17:15 74.2 °F 50.3 °F 30.02 in SSW 5.0 mph 9.0 mph 43% 0.00 in SCT
17:30 74.1 °F 50.8 °F 30.01 in South 2.0 mph 12.0 mph 44% 0.00 in SCT
17:45 73.7 °F 51.6 °F 30.02 in SW 1.0 mph 9.0 mph 46% 0.00 in SCT
18:00 72.8 °F 51.4 °F 30.01 in SW 2.0 mph 8.0 mph 47% 0.00 in SCT
18:15 72.6 °F 51.2 °F 30.01 in South 3.0 mph 10.0 mph 47% 0.00 in SCT
18:30 71.7 °F 50.9 °F 30.01 in WNW 3.0 mph 9.0 mph 48% 0.00 in SCT
18:45 71.4 °F 51.2 °F 30.01 in WSW 2.0 mph 7.0 mph 49% 0.00 in SCT
19:00 70.0 °F 51.6 °F 30.02 in SSW 3.0 mph 8.0 mph 52% 0.00 in SCT
19:15 69.9 °F 51.4 °F 30.02 in WSW 1.0 mph 7.0 mph 52% 0.00 in SCT
19:30 69.1 °F 52.2 °F 30.02 in Calm   4.0 mph 55% 0.00 in SCT
19:45 68.3 °F 51.5 °F 30.02 in South 2.0 mph 5.0 mph 55% 0.00 in SCT
20:00 67.5 °F 51.8 °F 30.03 in Calm   7.0 mph 57% 0.00 in SCT
20:15 66.5 °F 51.8 °F 30.02 in Calm   4.0 mph 59% 0.00 in SCT
20:30 65.8 °F 52.0 °F 30.02 in SW 1.0 mph 4.0 mph 61% 0.00 in SCT
20:45 65.2 °F 52.3 °F 30.03 in Calm   5.0 mph 63% 0.00 in SCT
21:00 64.7 °F 52.6 °F 30.02 in Calm   5.0 mph 65% 0.00 in SCT
21:15 64.2 °F 53.0 °F 30.03 in Calm   6.0 mph 67% 0.00 in FEW
21:30 63.7 °F 52.9 °F 30.04 in Calm   4.0 mph 68% 0.00 in FEW
22:00 62.8 °F 53.6 °F 30.05 in West 1.0 mph 2.0 mph 72% 0.00 in FEW
22:15 62.4 °F 53.6 °F 30.05 in Calm   2.0 mph 73% 0.00 in CLR
22:30 62.1 °F 53.7 °F 30.05 in Calm   4.0 mph 74% 0.00 in CLR
22:45 61.9 °F 53.9 °F 30.05 in Calm   3.0 mph 75% 0.00 in CLR
23:00 61.6 °F 53.6 °F 30.05 in WNW 1.0 mph 3.0 mph 75% 0.00 in CLR
23:15 61.4 °F 53.7 °F 30.05 in Calm   1.0 mph 76% 0.00 in CLR
23:30 60.9 °F 53.6 °F 30.04 in Calm   2.0 mph 77% 0.00 in CLR
23:45 60.7 °F 54.1 °F 30.04 in Calm   3.0 mph 79% 0.00 in CLR
TarryTown NY Weather
Compliments of Weather Underground - 1.5 mb